createdAt,value
2019-05-18T00:00:50.608Z,0
2019-05-18T00:01:50.779Z,0
2019-05-18T00:02:50.771Z,0
2019-05-18T00:03:50.885Z,0
2019-05-18T00:04:51.004Z,0
2019-05-18T00:05:51.130Z,0
2019-05-18T00:06:51.236Z,0
2019-05-18T00:07:51.230Z,0
2019-05-18T00:08:51.333Z,0
2019-05-18T00:09:51.410Z,0
2019-05-18T00:10:51.490Z,0
2019-05-18T00:11:51.582Z,0
2019-05-18T00:12:51.725Z,0
2019-05-18T00:13:51.800Z,0
2019-05-18T00:14:51.873Z,0
2019-05-18T00:15:51.964Z,0
2019-05-18T00:16:52.046Z,0
2019-05-18T00:17:52.090Z,0
2019-05-18T00:18:52.105Z,0
2019-05-18T00:19:52.169Z,0
2019-05-18T00:20:52.212Z,0
2019-05-18T00:21:52.261Z,0
2019-05-18T00:22:52.338Z,0
2019-05-18T00:23:52.359Z,0
2019-05-18T00:24:52.474Z,0
2019-05-18T00:25:52.592Z,0
2019-05-18T00:26:52.693Z,0
2019-05-18T00:27:52.850Z,0
2019-05-18T00:28:52.737Z,0
2019-05-18T00:29:52.769Z,0
2019-05-18T00:30:52.876Z,0
2019-05-18T00:31:52.870Z,0
2019-05-18T00:32:52.997Z,0
2019-05-18T00:33:52.960Z,0
2019-05-18T00:34:52.999Z,0
2019-05-18T00:35:53.031Z,0
2019-05-18T00:36:53.121Z,0
2019-05-18T00:37:53.293Z,0
2019-05-18T00:38:53.368Z,0
2019-05-18T00:39:53.498Z,0
2019-05-18T00:40:53.622Z,0
2019-05-18T00:41:53.732Z,0
2019-05-18T00:42:53.851Z,0
2019-05-18T00:43:53.963Z,0
2019-05-18T00:44:54.083Z,0
2019-05-18T00:45:54.197Z,0
2019-05-18T00:46:54.294Z,0
2019-05-18T00:47:54.457Z,0
2019-05-18T00:48:54.451Z,0
2019-05-18T00:49:54.573Z,0
2019-05-18T00:50:54.674Z,0
2019-05-18T00:51:54.797Z,0
2019-05-18T00:52:54.934Z,0
2019-05-18T00:53:55.097Z,0
2019-05-18T00:54:55.161Z,0
2019-05-18T00:55:56.229Z,0
2019-05-18T00:56:55.325Z,0
2019-05-18T00:57:55.372Z,0
2019-05-18T00:58:55.519Z,0
2019-05-18T00:59:55.599Z,0
2019-05-18T01:00:55.607Z,0
2019-05-18T01:01:55.645Z,0
2019-05-18T01:02:55.682Z,0
2019-05-18T01:03:55.773Z,0
2019-05-18T01:04:55.839Z,0
2019-05-18T01:05:55.882Z,0
2019-05-18T01:06:56.071Z,0
2019-05-18T01:07:56.180Z,0
2019-05-18T01:08:56.346Z,0
2019-05-18T01:09:56.412Z,0
2019-05-18T01:10:56.441Z,0
2019-05-18T01:11:56.466Z,0
2019-05-18T01:12:56.473Z,0
2019-05-18T01:13:56.528Z,0
2019-05-18T01:14:56.537Z,0
2019-05-18T01:15:56.645Z,0
2019-05-18T01:16:56.707Z,0
2019-05-18T01:17:57.864Z,0
2019-05-18T01:18:56.827Z,0
2019-05-18T01:19:56.877Z,0
2019-05-18T01:20:56.791Z,0
2019-05-18T01:21:56.824Z,0
2019-05-18T01:22:56.801Z,0
2019-05-18T01:23:56.857Z,0
2019-05-18T01:24:56.871Z,0
2019-05-18T01:25:56.915Z,0
2019-05-18T01:26:57.924Z,0
2019-05-18T01:27:56.943Z,0
2019-05-18T01:28:56.959Z,0
2019-05-18T01:29:57.011Z,0
2019-05-18T01:30:57.029Z,0
2019-05-18T01:31:57.026Z,0
2019-05-18T01:32:57.152Z,0
2019-05-18T01:33:57.258Z,0
2019-05-18T01:34:57.357Z,0
2019-05-18T01:35:57.367Z,0
2019-05-18T01:36:57.529Z,0
2019-05-18T01:37:57.576Z,0
2019-05-18T01:38:57.659Z,0
2019-05-18T01:39:57.830Z,0
2019-05-18T01:40:57.848Z,0
2019-05-18T01:41:57.849Z,0
2019-05-18T01:42:57.875Z,0
2019-05-18T01:43:57.919Z,0
2019-05-18T01:44:57.952Z,0
2019-05-18T01:45:57.987Z,0
2019-05-18T01:46:59.020Z,0
2019-05-18T01:48:12.575Z,0
2019-05-18T01:48:58.284Z,0
2019-05-18T01:49:58.368Z,0
2019-05-18T01:50:58.385Z,0
2019-05-18T01:51:58.402Z,0
2019-05-18T01:52:58.531Z,0
2019-05-18T01:53:58.573Z,0
2019-05-18T01:54:58.649Z,0
2019-05-18T01:55:58.649Z,0
2019-05-18T01:56:58.622Z,0
2019-05-18T01:57:58.687Z,0
2019-05-18T01:58:58.673Z,0
2019-05-18T01:59:58.742Z,0
2019-05-18T02:00:58.759Z,0
2019-05-18T02:01:58.795Z,0
2019-05-18T02:02:58.832Z,0
2019-05-18T02:03:58.938Z,0
2019-05-18T02:04:58.986Z,0
2019-05-18T02:05:59.028Z,0
2019-05-18T02:06:59.010Z,0
2019-05-18T02:07:59.018Z,0
2019-05-18T02:08:59.106Z,0
2019-05-18T02:09:59.250Z,0
2019-05-18T02:10:59.288Z,0
2019-05-18T02:11:59.286Z,0
2019-05-18T02:12:59.423Z,0
2019-05-18T02:13:59.566Z,0
2019-05-18T02:14:59.660Z,0
2019-05-18T02:15:59.807Z,0
2019-05-18T02:16:59.875Z,0
2019-05-18T02:17:59.910Z,0
2019-05-18T02:18:59.909Z,0
2019-05-18T02:20:00.048Z,0
2019-05-18T02:21:00.052Z,0
2019-05-18T02:22:00.198Z,0
2019-05-18T02:23:00.359Z,0
2019-05-18T02:24:00.517Z,0
2019-05-18T02:25:00.530Z,0
2019-05-18T02:26:00.499Z,0
2019-05-18T02:27:00.673Z,0
2019-05-18T02:28:00.745Z,0
2019-05-18T02:29:00.770Z,0
2019-05-18T02:30:00.782Z,0
2019-05-18T02:31:00.823Z,0
2019-05-18T02:32:01.005Z,0
2019-05-18T02:33:01.004Z,0
2019-05-18T02:34:01.015Z,0
2019-05-18T02:35:01.046Z,0
2019-05-18T02:36:01.089Z,0
2019-05-18T02:37:01.138Z,0
2019-05-18T02:38:01.129Z,0
2019-05-18T02:39:01.258Z,0
2019-05-18T02:40:01.396Z,0
2019-05-18T02:41:01.417Z,0
2019-05-18T02:42:01.466Z,0
2019-05-18T02:43:01.586Z,0
2019-05-18T02:44:01.765Z,0
2019-05-18T02:45:01.754Z,0
2019-05-18T02:46:01.910Z,0
2019-05-18T02:47:01.967Z,0
2019-05-18T02:48:02.015Z,0
2019-05-18T02:49:02.038Z,0
2019-05-18T02:50:02.026Z,0
2019-05-18T02:51:02.052Z,0
2019-05-18T02:52:03.154Z,0
2019-05-18T02:53:02.235Z,0
2019-05-18T02:54:02.296Z,0
2019-05-18T02:55:02.448Z,0
2019-05-18T02:56:02.496Z,0
2019-05-18T02:57:02.708Z,0
2019-05-18T02:58:02.657Z,0
2019-05-18T02:59:02.737Z,0
2019-05-18T03:00:02.805Z,0
2019-05-18T03:01:02.852Z,0
2019-05-18T03:02:02.942Z,0
2019-05-18T03:03:02.988Z,0
2019-05-18T03:04:03.048Z,0
2019-05-18T03:05:03.107Z,0
2019-05-18T03:06:03.177Z,0
2019-05-18T03:07:03.283Z,0
2019-05-18T03:08:03.385Z,0
2019-05-18T03:09:03.446Z,0
2019-05-18T03:10:03.522Z,0
2019-05-18T03:11:03.644Z,0
2019-05-18T03:12:03.708Z,0
2019-05-18T03:13:03.821Z,0
2019-05-18T03:14:03.895Z,0
2019-05-18T03:15:03.977Z,0
2019-05-18T03:16:04.050Z,0
2019-05-18T03:17:04.100Z,0
2019-05-18T03:18:04.203Z,0
2019-05-18T03:19:07.904Z,0
2019-05-18T03:20:04.302Z,0
2019-05-18T03:21:04.385Z,0
2019-05-18T03:22:04.455Z,0
2019-05-18T03:23:04.571Z,0
2019-05-18T03:24:04.641Z,0
2019-05-18T03:25:04.710Z,0
2019-05-18T03:26:04.778Z,0
2019-05-18T03:27:04.842Z,0
2019-05-18T03:28:04.950Z,0
2019-05-18T03:29:06.026Z,0
2019-05-18T03:30:05.105Z,0
2019-05-18T03:31:05.168Z,0
2019-05-18T03:32:05.296Z,0
2019-05-18T03:33:05.425Z,0
2019-05-18T03:34:05.495Z,0
2019-05-18T03:35:05.577Z,0
2019-05-18T03:36:05.633Z,0
2019-05-18T03:37:05.676Z,0
2019-05-18T03:38:05.766Z,0
2019-05-18T03:39:05.850Z,0
2019-05-18T03:40:06.006Z,5.625
2019-05-18T03:41:05.995Z,5.625
2019-05-18T03:42:06.093Z,5.625
2019-05-18T03:43:06.169Z,5.625
2019-05-18T03:44:06.268Z,5.625
2019-05-18T03:45:06.326Z,5.625
2019-05-18T03:46:06.431Z,5.625
2019-05-18T03:47:06.473Z,5.625
2019-05-18T03:48:06.546Z,5.625
2019-05-18T03:49:23.559Z,5.625
2019-05-18T03:50:07.693Z,5.625
2019-05-18T03:51:06.762Z,5.625
2019-05-18T03:52:06.881Z,5.625
2019-05-18T03:53:06.996Z,5.625
2019-05-18T03:54:07.127Z,11.25
2019-05-18T03:55:07.260Z,11.25
2019-05-18T03:56:07.346Z,11.25
2019-05-18T03:57:07.444Z,11.25
2019-05-18T03:58:07.535Z,11.25
2019-05-18T03:59:07.666Z,11.25
2019-05-18T04:00:07.795Z,11.25
2019-05-18T04:01:07.907Z,11.25
2019-05-18T04:02:08.018Z,11.25
2019-05-18T04:03:08.129Z,11.25
2019-05-18T04:04:08.261Z,16.875
2019-05-18T04:05:08.235Z,16.875
2019-05-18T04:06:08.414Z,16.875
2019-05-18T04:07:08.403Z,16.875
2019-05-18T04:08:08.390Z,16.875
2019-05-18T04:09:08.655Z,16.875
2019-05-18T04:10:08.628Z,16.875
2019-05-18T04:11:08.624Z,16.875
2019-05-18T04:12:08.776Z,22.5
2019-05-18T04:13:08.878Z,22.5
2019-05-18T04:14:09.103Z,22.5
2019-05-18T04:15:08.983Z,22.5
2019-05-18T04:16:09.118Z,22.5
2019-05-18T04:17:09.240Z,22.5
2019-05-18T04:18:09.214Z,28.125
2019-05-18T04:19:09.365Z,28.125
2019-05-18T04:20:09.396Z,28.125
2019-05-18T04:21:09.559Z,28.125
2019-05-18T04:22:09.693Z,28.125
2019-05-18T04:23:09.810Z,28.125
2019-05-18T04:24:09.973Z,28.125
2019-05-18T04:25:09.994Z,28.125
2019-05-18T04:26:10.138Z,28.125
2019-05-18T04:27:10.259Z,28.125
2019-05-18T04:28:10.385Z,28.125
2019-05-18T04:29:10.479Z,28.125
2019-05-18T04:30:10.657Z,28.125
2019-05-18T04:31:10.777Z,28.125
2019-05-18T04:32:10.916Z,28.125
2019-05-18T04:33:10.920Z,28.125
2019-05-18T04:34:10.924Z,28.125
2019-05-18T04:35:10.992Z,33.75
2019-05-18T04:36:11.011Z,33.75
2019-05-18T04:37:11.013Z,33.75
2019-05-18T04:38:11.021Z,33.75
2019-05-18T04:39:11.038Z,33.75
2019-05-18T04:40:11.098Z,33.75
2019-05-18T04:41:11.095Z,33.75
2019-05-18T04:42:11.104Z,33.75
2019-05-18T04:43:11.110Z,39.375
2019-05-18T04:44:11.116Z,39.375
2019-05-18T04:45:11.262Z,39.375
2019-05-18T04:46:11.295Z,39.375
2019-05-18T04:47:11.297Z,39.375
2019-05-18T04:48:11.418Z,39.375
2019-05-18T04:49:11.406Z,39.375
2019-05-18T04:50:11.633Z,39.375
2019-05-18T04:51:11.782Z,39.375
2019-05-18T04:52:11.791Z,39.375
2019-05-18T04:53:11.804Z,45
2019-05-18T04:54:11.809Z,45
2019-05-18T04:55:11.850Z,45
2019-05-18T04:56:11.857Z,45
2019-05-18T04:57:11.854Z,45
2019-05-18T04:58:11.870Z,45
2019-05-18T04:59:11.879Z,45
2019-05-18T05:00:11.954Z,45
2019-05-18T05:01:12.987Z,45
2019-05-18T05:02:12.006Z,50.625
2019-05-18T05:03:12.021Z,50.625
2019-05-18T05:04:12.028Z,50.625
2019-05-18T05:05:12.045Z,50.625
2019-05-18T05:06:12.208Z,50.625
2019-05-18T05:07:12.045Z,50.625
2019-05-18T05:08:12.083Z,50.625
2019-05-18T05:09:12.075Z,50.625
2019-05-18T05:10:12.081Z,56.25
2019-05-18T05:11:12.141Z,56.25
2019-05-18T05:12:12.144Z,56.25
2019-05-18T05:13:12.146Z,56.25
2019-05-18T05:14:12.157Z,56.25
2019-05-18T05:15:12.161Z,56.25
2019-05-18T05:16:12.211Z,56.25
2019-05-18T05:17:12.250Z,56.25
2019-05-18T05:18:12.256Z,61.875
2019-05-18T05:19:12.272Z,61.875
2019-05-18T05:20:19.546Z,61.875
2019-05-18T05:21:12.445Z,61.875
2019-05-18T05:22:12.397Z,61.875
2019-05-18T05:23:12.409Z,61.875
2019-05-18T05:24:12.407Z,61.875
2019-05-18T05:25:12.421Z,61.875
2019-05-18T05:26:12.444Z,67.5
2019-05-18T05:27:12.508Z,67.5
2019-05-18T05:28:12.510Z,73.125
2019-05-18T05:29:12.542Z,78.75
2019-05-18T05:30:12.681Z,84.375
2019-05-18T05:31:12.574Z,84.375
2019-05-18T05:32:12.674Z,84.375
2019-05-18T05:33:12.699Z,90
2019-05-18T05:34:12.716Z,90
2019-05-18T05:35:12.751Z,90
2019-05-18T05:36:13.323Z,95.625
2019-05-18T05:37:12.901Z,95.625
2019-05-18T05:38:12.914Z,95.625
2019-05-18T05:39:12.924Z,95.625
2019-05-18T05:40:12.928Z,101.25
2019-05-18T05:41:16.457Z,106.875
2019-05-18T05:42:12.972Z,112.5
2019-05-18T05:43:13.018Z,118.125
2019-05-18T05:44:13.010Z,112.5
2019-05-18T05:45:13.025Z,112.5
2019-05-18T05:46:13.064Z,106.875
2019-05-18T05:47:13.117Z,106.875
2019-05-18T05:48:13.122Z,112.5
2019-05-18T05:49:13.161Z,112.5
2019-05-18T05:50:13.184Z,112.5
2019-05-18T05:51:13.251Z,106.875
2019-05-18T05:52:13.293Z,106.875
2019-05-18T05:53:13.332Z,106.875
2019-05-18T05:54:13.337Z,106.875
2019-05-18T05:55:13.348Z,101.25
2019-05-18T05:56:13.380Z,101.25
2019-05-18T05:57:13.429Z,95.625
2019-05-18T05:58:13.461Z,90
2019-05-18T05:59:13.483Z,78.75
2019-05-18T06:00:13.545Z,78.75
2019-05-18T06:01:13.551Z,73.125
2019-05-18T06:02:13.577Z,73.125
2019-05-18T06:03:13.660Z,73.125
2019-05-18T06:04:13.686Z,73.125
2019-05-18T06:05:13.695Z,78.75
2019-05-18T06:06:13.688Z,73.125
2019-05-18T06:07:13.729Z,78.75
2019-05-18T06:08:13.751Z,78.75
2019-05-18T06:09:13.783Z,73.125
2019-05-18T06:10:13.801Z,73.125
2019-05-18T06:11:13.801Z,73.125
2019-05-18T06:12:13.827Z,73.125
2019-05-18T06:13:13.930Z,73.125
2019-05-18T06:14:13.969Z,67.5
2019-05-18T06:15:13.972Z,73.125
2019-05-18T06:16:14.004Z,73.125
2019-05-18T06:17:14.043Z,78.75
2019-05-18T06:18:14.128Z,78.75
2019-05-18T06:19:14.230Z,78.75
2019-05-18T06:20:14.235Z,78.75
2019-05-18T06:21:14.259Z,78.75
2019-05-18T06:22:14.256Z,78.75
2019-05-18T06:23:14.271Z,78.75
2019-05-18T06:24:14.341Z,84.375
2019-05-18T06:25:14.416Z,84.375
2019-05-18T06:26:14.482Z,84.375
2019-05-18T06:27:14.583Z,84.375
2019-05-18T06:28:14.671Z,84.375
2019-05-18T06:29:14.699Z,84.375
2019-05-18T06:30:14.723Z,84.375
2019-05-18T06:31:14.736Z,84.375
2019-05-18T06:32:14.738Z,84.375
2019-05-18T06:33:14.769Z,90
2019-05-18T06:34:14.808Z,90
2019-05-18T06:35:14.818Z,90
2019-05-18T06:36:14.831Z,90
2019-05-18T06:37:14.845Z,90
2019-05-18T06:38:14.893Z,90
2019-05-18T06:39:14.978Z,90
2019-05-18T06:40:15.283Z,90
2019-05-18T06:41:15.124Z,90
2019-05-18T06:42:15.503Z,90
2019-05-18T06:43:15.257Z,95.625
2019-05-18T06:44:15.328Z,95.625
2019-05-18T06:45:15.394Z,95.625
2019-05-18T06:46:16.394Z,90
2019-05-18T06:47:15.398Z,84.375
2019-05-18T06:48:15.417Z,84.375
2019-05-18T06:49:15.449Z,90
2019-05-18T06:50:15.498Z,95.625
2019-05-18T06:51:15.521Z,101.25
2019-05-18T06:52:15.546Z,106.875
2019-05-18T06:53:15.555Z,106.875
2019-05-18T06:54:15.576Z,106.875
2019-05-18T06:55:15.621Z,106.875
2019-05-18T06:56:15.675Z,106.875
2019-05-18T06:57:15.675Z,106.875
2019-05-18T06:58:15.677Z,106.875
2019-05-18T06:59:16.371Z,112.5
2019-05-18T07:00:15.772Z,112.5
2019-05-18T07:01:15.824Z,112.5
2019-05-18T07:02:16.055Z,123.75
2019-05-18T07:03:15.925Z,146.25
2019-05-18T07:04:15.946Z,151.875
2019-05-18T07:05:15.978Z,157.5
2019-05-18T07:06:15.989Z,146.25
2019-05-18T07:07:16.016Z,146.25
2019-05-18T07:08:16.037Z,146.25
2019-05-18T07:09:16.046Z,151.875
2019-05-18T07:10:16.085Z,157.5
2019-05-18T07:11:16.073Z,163.125
2019-05-18T07:12:16.076Z,180
2019-05-18T07:13:16.121Z,196.875
2019-05-18T07:14:25.146Z,196.875
2019-05-18T07:15:16.321Z,202.5
2019-05-18T07:16:16.364Z,213.75
2019-05-18T07:17:16.386Z,219.375
2019-05-18T07:18:16.404Z,230.625
2019-05-18T07:19:16.469Z,241.875
2019-05-18T07:20:16.513Z,253.125
2019-05-18T07:21:22.103Z,247.5
2019-05-18T07:22:16.560Z,225
2019-05-18T07:23:16.556Z,213.75
2019-05-18T07:24:16.569Z,208.125
2019-05-18T07:25:16.840Z,208.125
2019-05-18T07:26:16.737Z,225
2019-05-18T07:27:16.806Z,230.625
2019-05-18T07:28:16.846Z,230.625
2019-05-18T07:29:16.879Z,230.625
2019-05-18T07:30:17.746Z,247.5
2019-05-18T07:31:16.957Z,326.25
2019-05-18T07:32:17.071Z,708.75
2019-05-18T07:33:17.100Z,691.875
2019-05-18T07:34:17.113Z,669.375
2019-05-18T07:35:17.170Z,686.25
2019-05-18T07:36:17.203Z,826.875
2019-05-18T07:37:17.203Z,849.375
2019-05-18T07:38:17.229Z,838.125
2019-05-18T07:39:17.268Z,945
2019-05-18T07:40:17.326Z,1006.875
2019-05-18T07:41:17.440Z,624.375
2019-05-18T07:42:17.523Z,1040.625
2019-05-18T07:43:17.537Z,1051.875
2019-05-18T07:44:17.564Z,1051.875
2019-05-18T07:45:17.734Z,1074.375
2019-05-18T07:46:17.885Z,1085.625
2019-05-18T07:47:17.950Z,1029.375
2019-05-18T07:48:18.020Z,1023.75
2019-05-18T07:49:18.042Z,1063.125
2019-05-18T07:50:18.167Z,770.625
2019-05-18T07:51:18.279Z,1130.625
2019-05-18T07:52:19.322Z,708.75
2019-05-18T07:53:18.338Z,905.625
2019-05-18T07:54:18.427Z,759.375
2019-05-18T07:55:18.509Z,663.75
2019-05-18T07:56:18.556Z,675
2019-05-18T07:57:18.659Z,1001.25
2019-05-18T07:58:18.744Z,1175.625
2019-05-18T07:59:19.905Z,1209.375
2019-05-18T08:00:18.699Z,1231.875
2019-05-18T08:01:18.722Z,1215
2019-05-18T08:02:18.775Z,1130.625
2019-05-18T08:03:18.741Z,939.375
2019-05-18T08:04:18.758Z,725.625
2019-05-18T08:05:18.792Z,607.5
2019-05-18T08:06:18.884Z,613.125
2019-05-18T08:07:18.970Z,613.125
2019-05-18T08:08:19.000Z,573.75
2019-05-18T08:09:18.995Z,635.625
2019-05-18T08:10:19.010Z,511.875
2019-05-18T08:11:18.997Z,562.5
2019-05-18T08:12:19.086Z,601.875
2019-05-18T08:13:19.066Z,663.75
2019-05-18T08:14:19.097Z,720
2019-05-18T08:15:19.087Z,618.75
2019-05-18T08:16:19.095Z,708.75
2019-05-18T08:17:19.152Z,562.5
2019-05-18T08:18:19.213Z,635.625
2019-05-18T08:19:19.220Z,652.5
2019-05-18T08:20:19.239Z,613.125
2019-05-18T08:21:19.227Z,596.25
2019-05-18T08:22:19.287Z,742.5
2019-05-18T08:23:19.337Z,753.75
2019-05-18T08:24:19.344Z,686.25
2019-05-18T08:25:19.366Z,759.375
2019-05-18T08:26:19.368Z,607.5
2019-05-18T08:27:19.504Z,461.25
2019-05-18T08:28:19.476Z,556.875
2019-05-18T08:29:19.488Z,495
2019-05-18T08:30:19.524Z,528.75
2019-05-18T08:31:19.555Z,596.25
2019-05-18T08:32:19.576Z,770.625
2019-05-18T08:33:19.616Z,714.375
2019-05-18T08:34:19.628Z,540
2019-05-18T08:35:19.682Z,360
2019-05-18T08:36:20.673Z,388.125
2019-05-18T08:37:19.690Z,607.5
2019-05-18T08:38:19.748Z,466.875
2019-05-18T08:39:19.767Z,534.375
2019-05-18T08:40:19.804Z,410.625
2019-05-18T08:41:19.809Z,303.75
2019-05-18T08:42:19.813Z,241.875
2019-05-18T08:43:19.850Z,225
2019-05-18T08:44:19.850Z,360
2019-05-18T08:45:19.896Z,556.875
2019-05-18T08:46:19.891Z,585
2019-05-18T08:47:19.902Z,579.375
2019-05-18T08:48:19.978Z,416.25
2019-05-18T08:49:19.997Z,427.5
2019-05-18T08:50:20.012Z,382.5
2019-05-18T08:51:20.025Z,303.75
2019-05-18T08:52:20.052Z,270
2019-05-18T08:53:20.115Z,348.75
2019-05-18T08:54:20.140Z,382.5
2019-05-18T08:55:20.238Z,247.5
2019-05-18T08:56:20.203Z,219.375
2019-05-18T08:57:20.214Z,202.5
2019-05-18T08:58:20.261Z,180
2019-05-18T08:59:20.337Z,174.375
2019-05-18T09:00:20.403Z,180
2019-05-18T09:01:20.457Z,241.875
2019-05-18T09:02:20.503Z,292.5
2019-05-18T09:03:20.639Z,225
2019-05-18T09:04:20.695Z,174.375
2019-05-18T09:05:20.719Z,174.375
2019-05-18T09:06:20.728Z,174.375
2019-05-18T09:07:20.750Z,174.375
2019-05-18T09:08:20.781Z,315
2019-05-18T09:09:20.820Z,320.625
2019-05-18T09:10:20.835Z,241.875
2019-05-18T09:11:20.832Z,264.375
2019-05-18T09:12:20.844Z,208.125
2019-05-18T09:13:20.901Z,213.75
2019-05-18T09:14:20.974Z,208.125
2019-05-18T09:15:20.994Z,225
2019-05-18T09:16:20.982Z,225
2019-05-18T09:17:20.994Z,258.75
2019-05-18T09:18:21.014Z,270
2019-05-18T09:19:21.054Z,292.5
2019-05-18T09:20:21.084Z,421.875
2019-05-18T09:21:21.093Z,360
2019-05-18T09:22:22.991Z,388.125
2019-05-18T09:23:21.106Z,421.875
2019-05-18T09:24:21.169Z,416.25
2019-05-18T09:25:21.198Z,427.5
2019-05-18T09:26:21.202Z,421.875
2019-05-18T09:27:21.215Z,416.25
2019-05-18T09:28:21.225Z,416.25
2019-05-18T09:29:21.283Z,405
2019-05-18T09:30:21.356Z,393.75
2019-05-18T09:31:21.391Z,393.75
2019-05-18T09:32:21.386Z,399.375
2019-05-18T09:33:21.408Z,405
2019-05-18T09:34:21.417Z,410.625
2019-05-18T09:35:21.476Z,410.625
2019-05-18T09:36:21.502Z,410.625
2019-05-18T09:37:21.533Z,393.75
2019-05-18T09:38:22.002Z,382.5
2019-05-18T09:39:21.587Z,360
2019-05-18T09:40:21.653Z,405
2019-05-18T09:41:21.675Z,450
2019-05-18T09:42:21.698Z,450
2019-05-18T09:43:21.732Z,376.875
2019-05-18T09:44:21.790Z,388.125
2019-05-18T09:45:21.802Z,511.875
2019-05-18T09:46:21.839Z,433.125
2019-05-18T09:47:22.186Z,410.625
2019-05-18T09:48:21.912Z,410.625
2019-05-18T09:49:21.976Z,388.125
2019-05-18T09:50:22.015Z,393.75
2019-05-18T09:51:23.636Z,601.875
2019-05-18T09:52:42.069Z,545.625
2019-05-18T09:53:23.162Z,433.125
2019-05-18T09:54:23.319Z,382.5
2019-05-18T09:55:23.891Z,365.625
2019-05-18T09:56:22.569Z,360
2019-05-18T09:57:22.589Z,371.25
2019-05-18T09:58:23.904Z,399.375
2019-05-18T09:59:23.706Z,433.125
2019-05-18T10:00:24.586Z,450
2019-05-18T10:01:23.483Z,495
2019-05-18T10:02:22.985Z,450
2019-05-18T10:03:22.997Z,483.75
2019-05-18T10:04:23.007Z,461.25
2019-05-18T10:05:23.063Z,433.125
2019-05-18T10:06:23.066Z,466.875
2019-05-18T10:07:23.091Z,410.625
2019-05-18T10:08:23.203Z,483.75
2019-05-18T10:09:23.221Z,337.5
2019-05-18T10:10:23.268Z,309.375
2019-05-18T10:11:23.349Z,511.875
2019-05-18T10:12:24.785Z,787.5
2019-05-18T10:13:23.391Z,343.125
2019-05-18T10:14:23.426Z,264.375
2019-05-18T10:15:23.526Z,258.75
2019-05-18T10:16:23.599Z,258.75
2019-05-18T10:17:23.608Z,275.625
2019-05-18T10:18:23.626Z,264.375
2019-05-18T10:19:23.626Z,286.875
2019-05-18T10:20:23.697Z,461.25
2019-05-18T10:21:23.803Z,787.5
2019-05-18T10:22:23.808Z,298.125
2019-05-18T10:23:23.800Z,354.375
2019-05-18T10:24:23.825Z,1800
2019-05-18T10:25:23.870Z,1580.625
2019-05-18T10:26:23.938Z,1929.375
2019-05-18T10:27:23.963Z,1996.875
2019-05-18T10:28:23.993Z,2036.25
2019-05-18T10:29:23.978Z,2030.625
2019-05-18T10:30:23.987Z,2013.75
2019-05-18T10:31:24.028Z,2030.625
2019-05-18T10:32:24.038Z,2047.5
2019-05-18T10:33:24.052Z,2041.875
2019-05-18T10:34:24.116Z,2013.75
2019-05-18T10:35:24.080Z,1968.75
2019-05-18T10:36:24.118Z,1935
2019-05-18T10:37:24.119Z,1923.75
2019-05-18T10:38:24.128Z,1940.625
2019-05-18T10:39:24.126Z,1968.75
2019-05-18T10:40:24.124Z,1957.5
2019-05-18T10:41:24.194Z,1951.875
2019-05-18T10:42:24.239Z,2047.5
2019-05-18T10:43:24.273Z,2137.5
2019-05-18T10:44:24.299Z,2137.5
2019-05-18T10:45:24.317Z,2137.5
2019-05-18T10:46:24.376Z,2081.25
2019-05-18T10:47:24.415Z,2047.5
2019-05-18T10:48:24.449Z,1996.875
2019-05-18T10:49:24.467Z,2008.125
2019-05-18T10:50:24.480Z,1935
2019-05-18T10:51:25.503Z,1861.875
2019-05-18T10:52:24.564Z,1845
2019-05-18T10:53:28.576Z,1710
2019-05-18T10:54:24.770Z,1890
2019-05-18T10:55:24.826Z,1378.125
2019-05-18T10:56:24.869Z,1991.25
2019-05-18T10:57:24.965Z,1996.875
2019-05-18T10:58:24.983Z,1895.625
2019-05-18T10:59:24.990Z,1839.375
2019-05-18T11:00:25.014Z,1884.375
2019-05-18T11:01:25.029Z,1929.375
2019-05-18T11:02:25.139Z,2013.75
2019-05-18T11:03:25.145Z,2030.625
2019-05-18T11:04:25.191Z,1940.625
2019-05-18T11:05:25.208Z,1985.625
2019-05-18T11:06:25.243Z,1974.375
2019-05-18T11:07:27.150Z,2019.375
2019-05-18T11:08:25.305Z,1828.125
2019-05-18T11:09:25.378Z,2064.375
2019-05-18T11:10:25.337Z,1839.375
2019-05-18T11:11:25.420Z,2070
2019-05-18T11:12:25.468Z,748.125
2019-05-18T11:13:25.519Z,1271.25
2019-05-18T11:14:25.527Z,1468.125
2019-05-18T11:15:25.608Z,1698.75
2019-05-18T11:16:25.687Z,1805.625
2019-05-18T11:17:25.795Z,1816.875
2019-05-18T11:18:25.870Z,1850.625
2019-05-18T11:19:25.938Z,1884.375
2019-05-18T11:20:25.941Z,1895.625
2019-05-18T11:21:26.052Z,1912.5
2019-05-18T11:22:26.068Z,1923.75
2019-05-18T11:23:26.184Z,1918.125
2019-05-18T11:24:26.211Z,1918.125
2019-05-18T11:25:26.250Z,1884.375
2019-05-18T11:26:26.258Z,1884.375
2019-05-18T11:27:26.280Z,1957.5
2019-05-18T11:28:26.330Z,2092.5
2019-05-18T11:29:26.414Z,2137.5
2019-05-18T11:30:26.437Z,2103.75
2019-05-18T11:31:26.472Z,2109.375
2019-05-18T11:32:26.487Z,2143.125
2019-05-18T11:33:26.574Z,2221.875
2019-05-18T11:34:26.634Z,2311.875
2019-05-18T11:35:26.712Z,2328.75
2019-05-18T11:36:26.764Z,2176.875
2019-05-18T11:37:26.790Z,2030.625
2019-05-18T11:38:26.806Z,2002.5
2019-05-18T11:39:26.889Z,2030.625
2019-05-18T11:40:26.900Z,2103.75
2019-05-18T11:41:26.927Z,2160
2019-05-18T11:42:26.975Z,2154.375
2019-05-18T11:43:26.975Z,2143.125
2019-05-18T11:44:27.050Z,2154.375
2019-05-18T11:45:27.068Z,2154.375
2019-05-18T11:46:27.080Z,2182.5
2019-05-18T11:47:27.125Z,2238.75
2019-05-18T11:48:28.173Z,2227.5
2019-05-18T11:49:29.130Z,2160
2019-05-18T11:50:27.268Z,2109.375
2019-05-18T11:51:27.343Z,2098.125
2019-05-18T11:52:27.397Z,2115
2019-05-18T11:53:27.456Z,2131.875
2019-05-18T11:54:27.514Z,2165.625
2019-05-18T11:55:27.544Z,2210.625
2019-05-18T11:56:27.573Z,2165.625
2019-05-18T11:57:27.607Z,2075.625
2019-05-18T11:58:27.622Z,1923.75
2019-05-18T11:59:27.674Z,1929.375
2019-05-18T12:00:27.670Z,1968.75
2019-05-18T12:01:27.718Z,1974.375
2019-05-18T12:02:27.744Z,1946.25
2019-05-18T12:03:27.766Z,1890
2019-05-18T12:04:27.813Z,1918.125
2019-05-18T12:05:27.825Z,2019.375
2019-05-18T12:06:27.843Z,2148.75
2019-05-18T12:07:27.847Z,2160
2019-05-18T12:08:27.895Z,2115
2019-05-18T12:09:27.976Z,2126.25
2019-05-18T12:10:28.033Z,2103.75
2019-05-18T12:11:28.063Z,1108.125
2019-05-18T12:12:28.100Z,427.5
2019-05-18T12:13:28.115Z,388.125
2019-05-18T12:14:28.209Z,506.25
2019-05-18T12:15:28.290Z,2098.125
2019-05-18T12:16:28.304Z,1974.375
2019-05-18T12:17:28.580Z,1085.625
2019-05-18T12:18:28.428Z,1001.25
2019-05-18T12:19:28.457Z,365.625
2019-05-18T12:20:28.514Z,354.375
2019-05-18T12:21:28.571Z,320.625
2019-05-18T12:22:28.583Z,270
2019-05-18T12:23:28.616Z,241.875
2019-05-18T12:24:28.625Z,236.25
2019-05-18T12:25:28.683Z,241.875
2019-05-18T12:26:28.706Z,236.25
2019-05-18T12:27:28.729Z,230.625
2019-05-18T12:28:31.336Z,230.625
2019-05-18T12:29:28.780Z,225
2019-05-18T12:30:28.810Z,219.375
2019-05-18T12:31:28.850Z,241.875
2019-05-18T12:32:28.860Z,270
2019-05-18T12:33:28.875Z,326.25
2019-05-18T12:34:28.899Z,888.75
2019-05-18T12:35:28.968Z,1434.375
2019-05-18T12:36:28.993Z,1530
2019-05-18T12:37:30.034Z,1766.25
2019-05-18T12:38:29.068Z,1918.125
2019-05-18T12:39:29.093Z,1923.75
2019-05-18T12:40:29.134Z,1923.75
2019-05-18T12:41:29.146Z,382.5
2019-05-18T12:42:29.188Z,376.875
2019-05-18T12:43:29.218Z,343.125
2019-05-18T12:44:29.243Z,1890
2019-05-18T12:45:29.328Z,1940.625
2019-05-18T12:46:29.372Z,1164.375
2019-05-18T12:47:29.380Z,450
2019-05-18T12:48:29.386Z,613.125
2019-05-18T12:49:29.395Z,748.125
2019-05-18T12:50:29.470Z,478.125
2019-05-18T12:51:29.545Z,489.375
2019-05-18T12:52:29.593Z,1738.125
2019-05-18T12:53:29.640Z,1912.5
2019-05-18T12:54:44.207Z,1974.375
2019-05-18T12:55:29.669Z,1400.625
2019-05-18T12:56:29.773Z,1018.125
2019-05-18T12:57:29.789Z,551.25
2019-05-18T12:58:29.823Z,1231.875
2019-05-18T12:59:29.834Z,1951.875
2019-05-18T13:00:29.874Z,1653.75
2019-05-18T13:01:29.923Z,1811.25
2019-05-18T13:02:29.951Z,1760.625
2019-05-18T13:03:29.979Z,1704.375
2019-05-18T13:04:30.029Z,1614.375